Time;durP1;ratioP1;P1;durP2;ratioP2;P2;SDS_P1;SDS_P2;PMS_P1;PMS_P2;Temp;Humidity;BMP_temperature;BMP_pressure;BME280_temperature;BME280_humidity;BME280_pressure;Samples;Min_cycle;Max_cycle;Signal;HPM_P1;HPM_P2
2023/12/01 00:00:37;;;;;;;15.57;14.20;;;;;;;9.17;100.00;48937.38;6183829;23;20159;-59
2023/12/01 00:03:04;;;;;;;15.30;13.70;;;;;;;9.14;100.00;46921.06;6183757;23;20205;-59
2023/12/01 00:05:31;;;;;;;16.30;14.80;;;;;;;9.32;100.00;47524.22;6183721;23;20158;-61
2023/12/01 00:07:58;;;;;;;14.80;12.73;;;;;;;9.38;100.00;47025.91;6183838;23;20154;-60
2023/12/01 00:10:26;;;;;;;15.83;14.17;;;;;;;9.52;100.00;49194.13;6184069;23;20163;-59
2023/12/01 00:12:53;;;;;;;15.03;13.53;;;;;;;9.56;100.00;50465.44;6183210;23;20174;-60
2023/12/01 00:15:20;;;;;;;15.63;13.90;;;;;;;9.63;100.00;53491.47;6183893;23;20158;-60
2023/12/01 00:17:49;;;;;;;15.57;14.00;;;;;;;9.62;100.00;58311.28;6183549;23;20261;-60
2023/12/01 00:20:16;;;;;;;15.17;13.63;;;;;;;9.56;100.00;63241.53;6184268;23;20169;-60
2023/12/01 00:22:43;;;;;;;16.20;14.70;;;;;;;9.47;100.00;63991.63;6184060;23;20236;-61
2023/12/01 00:25:10;;;;;;;16.50;14.90;;;;;;;9.29;100.00;63288.19;6184044;23;20213;-61
2023/12/01 00:27:38;;;;;;;16.17;14.50;;;;;;;9.25;100.00;54251.41;6183885;23;20158;-59
2023/12/01 00:30:06;;;;;;;17.33;15.00;;;;;;;9.27;100.00;49587.69;6183790;23;20274;-59
2023/12/01 00:32:33;;;;;;;13.93;12.53;;;;;;;9.34;100.00;50339.81;6183787;23;20158;-59
2023/12/01 00:35:02;;;;;;;15.30;13.80;;;;;;;9.40;100.00;45461.16;6184044;23;20197;-59
2023/12/01 00:37:29;;;;;;;17.90;14.80;;;;;;;9.40;100.00;53343.44;6183707;23;20253;-59
2023/12/01 00:39:56;;;;;;;15.10;13.57;;;;;;;9.22;100.00;62730.28;6184337;23;20593;-59
2023/12/01 00:42:23;;;;;;;14.97;13.57;;;;;;;9.13;100.00;61944.59;6183652;23;20220;-59
2023/12/01 00:44:50;;;;;;;16.10;14.47;;;;;;;9.12;100.00;56898.53;6183570;23;20217;-59
2023/12/01 00:47:17;;;;;;;18.63;14.87;;;;;;;9.07;100.00;54804.47;6184063;23;20158;-59
2023/12/01 00:49:44;;;;;;;18.63;14.47;;;;;;;9.12;100.00;51369.91;6183994;23;20162;-60
2023/12/01 00:52:13;;;;;;;16.83;13.63;;;;;;;9.03;100.00;52130.66;6183823;23;20197;-60
2023/12/01 00:54:41;;;;;;;15.60;14.00;;;;;;;8.62;100.00;52336.50;6183638;23;20166;-60
2023/12/01 00:57:08;;;;;;;16.40;14.73;;;;;;;8.70;100.00;49710.94;6183410;23;20244;-60
2023/12/01 00:59:35;;;;;;;14.43;13.03;;;;;;;8.67;100.00;44687.28;6183667;23;20217;-60
2023/12/01 01:02:02;;;;;;;17.60;15.03;;;;;;;8.81;100.00;42339.84;6184692;23;20593;-59
2023/12/01 01:04:29;;;;;;;16.40;14.70;;;;;;;8.76;100.00;41366.06;6186216;23;20159;-63
2023/12/01 01:06:56;;;;;;;15.87;14.20;;;;;;;8.82;100.00;41851.53;6185896;23;20163;-59
2023/12/01 01:09:25;;;;;;;19.77;15.67;;;;;;;8.73;100.00;43123.34;6185806;23;20210;-60
2023/12/01 01:11:52;;;;;;;15.73;14.13;;;;;;;8.75;100.00;43063.97;6185496;23;20166;-60
2023/12/01 01:14:19;;;;;;;18.70;14.00;;;;;;;8.62;100.00;43851.56;6185456;23;20220;-59
2023/12/01 01:16:46;;;;;;;16.83;14.73;;;;;;;8.44;100.00;44427.19;6185733;23;20187;-61
2023/12/01 01:19:13;;;;;;;17.37;14.63;;;;;;;8.37;100.00;42831.41;6185413;23;20221;-60
2023/12/01 01:21:40;;;;;;;17.40;14.57;;;;;;;8.34;100.00;41383.22;6185804;23;20232;-59
2023/12/01 01:24:08;;;;;;;24.63;16.13;;;;;;;8.30;100.00;40348.31;6185975;23;20170;-60
2023/12/01 01:26:38;;;;;;;16.90;15.13;;;;;;;8.35;100.00;40759.44;6185706;23;20193;-59
2023/12/01 01:29:05;;;;;;;16.80;15.13;;;;;;;7.89;100.00;41954.72;6185775;23;20162;-60
2023/12/01 01:31:32;;;;;;;18.67;15.37;;;;;;;8.16;100.00;42927.13;6185658;23;20158;-59
2023/12/01 01:33:59;;;;;;;19.97;14.77;;;;;;;8.09;100.00;43757.72;6185712;23;20162;-60
2023/12/01 01:36:26;;;;;;;15.90;14.03;;;;;;;7.85;100.00;44535.09;6185224;23;20191;-61
2023/12/01 01:38:53;;;;;;;17.70;15.93;;;;;;;7.80;100.00;45372.91;6185606;23;20475;-60
2023/12/01 01:41:21;;;;;;;25.07;16.67;;;;;;;7.72;100.00;45820.34;6185575;23;20162;-60
2023/12/01 01:43:49;;;;;;;17.00;15.30;;;;;;;7.57;100.00;46286.44;6185242;23;20162;-61
2023/12/01 01:46:17;;;;;;;22.83;15.90;;;;;;;7.52;100.00;47476.94;6185647;23;20537;-61
2023/12/01 01:48:44;;;;;;;20.17;14.93;;;;;;;7.60;100.00;48146.00;6185631;23;20257;-60
2023/12/01 01:51:14;;;;;;;23.10;15.90;;;;;;;7.46;100.00;48149.31;6184997;23;20170;-58
2023/12/01 01:53:42;;;;;;;22.47;15.27;;;;;;;7.35;100.00;46603.91;6185110;23;20166;-59
2023/12/01 01:56:12;;;;;;;18.73;15.10;;;;;;;7.22;100.00;50036.88;6185174;23;20229;-59
2023/12/01 01:58:39;;;;;;;16.87;15.07;;;;;;;7.24;100.00;50840.69;6184883;23;20164;-61
2023/12/01 02:01:08;;;;;;;17.60;15.43;;;;;;;7.28;100.00;51842.81;6185318;23;20478;-60
2023/12/01 02:03:35;;;;;;;19.60;16.63;;;;;;;7.32;100.00;52635.50;6185375;23;20510;-61
2023/12/01 02:06:06;;;;;;;21.07;16.03;;;;;;;7.31;100.00;54610.44;6185489;23;20475;-60
2023/12/01 02:08:35;;;;;;;19.97;15.90;;;;;;;7.27;100.00;52958.88;6185114;23;20161;-61
2023/12/01 02:11:02;;;;;;;20.67;16.57;;;;;;;7.03;100.00;52114.69;6185229;23;20221;-59
2023/12/01 02:13:29;;;;;;;21.30;18.53;;;;;;;7.39;100.00;51299.94;6185505;23;20498;-59
2023/12/01 02:15:59;;;;;;;22.07;17.67;;;;;;;7.51;100.00;44708.09;6185414;23;20162;-60
2023/12/01 02:18:29;;;;;;;24.83;19.13;;;;;;;7.74;100.00;44345.94;6185038;23;20703;-60
2023/12/01 02:20:57;;;;;;;22.90;18.47;;;;;;;7.87;100.00;44229.34;6184838;23;20212;-60
2023/12/01 02:23:27;;;;;;;26.53;20.13;;;;;;;7.90;100.00;42182.00;6184801;23;20162;-60
2023/12/01 02:25:54;;;;;;;27.93;21.20;;;;;;;8.20;100.00;38619.88;6185352;23;20474;-59
2023/12/01 02:28:21;;;;;;;26.47;21.47;;;;;;;8.39;100.00;33814.50;6184933;23;20216;-59
2023/12/01 02:30:50;;;;;;;31.90;22.17;;;;;;;8.64;100.00;33445.03;6185229;23;20205;-60
2023/12/01 02:33:18;;;;;;;33.03;22.70;;;;;;;8.83;100.00;33785.56;6185269;23;20553;-59
2023/12/01 02:35:49;;;;;;;33.30;22.53;;;;;;;8.88;100.00;34223.41;6185381;23;20162;-60
2023/12/01 02:38:17;;;;;;;28.23;21.17;;;;;;;9.18;100.00;35248.88;6184879;23;20196;-60
2023/12/01 02:40:50;;;;;;;27.97;21.27;;;;;;;9.32;100.00;37053.13;6185080;23;20593;-60
2023/12/01 02:43:18;;;;;;;29.17;21.90;;;;;;;9.40;100.00;39125.09;6184895;23;20622;-60
2023/12/01 02:45:45;;;;;;;24.80;20.27;;;;;;;9.50;100.00;39832.72;6185246;23;20594;-60
2023/12/01 02:48:12;;;;;;;25.50;19.60;;;;;;;9.56;100.00;41926.44;6185000;23;20159;-60
2023/12/01 02:50:39;;;;;;;21.83;18.80;;;;;;;9.70;100.00;42337.47;6184794;23;20610;-60
2023/12/01 02:53:07;;;;;;;25.17;20.53;;;;;;;9.76;100.00;42476.13;6184418;23;20198;-60
2023/12/01 02:55:34;;;;;;;23.63;19.83;;;;;;;9.84;100.00;42815.50;6184547;23;20225;-60
2023/12/01 02:58:03;;;;;;;23.33;18.87;;;;;;;9.83;100.00;43314.50;6184735;23;20232;-60
2023/12/01 03:00:30;;;;;;;19.20;16.73;;;;;;;9.92;100.00;40523.31;6184908;23;20162;-59
2023/12/01 03:02:57;;;;;;;19.37;17.43;;;;;;;9.91;100.00;39361.66;6184468;23;20162;-61
2023/12/01 03:05:24;;;;;;;19.33;17.10;;;;;;;9.99;100.00;35566.50;6184813;23;20162;-60
2023/12/01 03:07:51;;;;;;;20.37;17.23;;;;;;;10.02;100.00;33753.81;6184377;23;20213;-60
2023/12/01 03:10:19;;;;;;;18.77;16.87;;;;;;;10.01;100.00;30192.16;6184767;23;20158;-60
2023/12/01 03:12:46;;;;;;;17.97;16.17;;;;;;;10.10;100.00;27343.75;6184720;23;20165;-60
2023/12/01 03:15:19;;;;;;;17.97;16.13;;;;;;;10.07;100.00;25069.75;6184972;23;20158;-58
2023/12/01 03:17:47;;;;;;;18.23;16.17;;;;;;;10.23;100.00;21913.44;6184852;23;20579;-61
2023/12/01 03:20:16;;;;;;;18.07;16.23;;;;;;;10.28;100.00;20757.78;6184759;23;20163;-60
2023/12/01 03:22:44;;;;;;;19.00;16.63;;;;;;;10.32;100.00;19227.81;6184190;23;20158;-60
2023/12/01 03:25:12;;;;;;;19.97;18.00;;;;;;;10.34;100.00;17888.53;6183956;23;20224;-60
2023/12/01 03:27:42;;;;;;;20.83;16.60;;;;;;;10.35;100.00;15779.69;6184549;23;20228;-61
2023/12/01 03:30:16;;;;;;;18.97;17.17;;;;;;;10.35;100.00;13854.59;6184276;23;20220;-60
2023/12/01 03:32:47;;;;;;;21.27;18.13;;;;;;;10.47;100.00;11933.44;6184467;23;20493;-60
2023/12/01 03:35:16;;;;;;;21.03;17.03;;;;;;;10.51;100.00;11293.31;6184183;23;20158;-59
2023/12/01 03:37:45;;;;;;;20.87;16.50;;;;;;;10.58;100.00;11294.72;6184023;23;20233;-59
2023/12/01 03:40:13;;;;;;;18.97;17.13;;;;;;;10.66;100.00;10976.09;6184055;23;20165;-60
2023/12/01 03:42:43;;;;;;;17.10;15.60;;;;;;;10.61;100.00;10333.66;6184111;23;20261;-61
2023/12/01 03:45:12;;;;;;;15.77;14.43;;;;;;;10.72;100.00;10336.22;6184023;23;20159;-59
2023/12/01 03:47:40;;;;;;;16.73;14.87;;;;;;;10.80;100.00;10017.22;6183966;23;20273;-61
2023/12/01 03:50:11;;;;;;;15.83;14.30;;;;;;;10.90;100.00;11302.41;6183865;23;20167;-60
2023/12/01 03:52:41;;;;;;;15.70;14.33;;;;;;;10.95;100.00;14513.34;6184007;23;20205;-60
2023/12/01 03:55:08;;;;;;;15.90;14.40;;;;;;;11.01;100.00;17085.22;6184345;23;20479;-60
2023/12/01 03:57:36;;;;;;;16.73;14.27;;;;;;;10.99;100.00;19335.09;6183966;23;20240;-60
2023/12/01 04:00:07;;;;;;;16.03;13.60;;;;;;;11.00;100.00;19657.09;6183967;23;20162;-59
2023/12/01 04:02:37;;;;;;;13.90;12.70;;;;;;;10.94;100.00;19333.25;6183878;23;20237;-60
2023/12/01 04:05:06;;;;;;;14.33;12.83;;;;;;;10.78;100.00;19970.63;6184328;23;20158;-60
2023/12/01 04:07:35;;;;;;;13.70;12.40;;;;;;;11.02;100.00;19657.84;6184148;23;20210;-60
2023/12/01 04:10:03;;;;;;;13.97;12.93;;;;;;;10.98;100.00;19978.22;6184479;23;20158;-60
2023/12/01 04:12:31;;;;;;;13.10;11.80;;;;;;;11.05;100.00;19658.97;6183845;23;20162;-60
2023/12/01 04:14:58;;;;;;;12.13;11.37;;;;;;;11.13;100.00;20627.25;6184288;23;20493;-60
2023/12/01 04:17:25;;;;;;;12.57;11.50;;;;;;;11.16;100.00;20950.28;6183705;23;20203;-60
2023/12/01 04:19:52;;;;;;;12.53;11.60;;;;;;;11.17;100.00;21916.41;6183934;23;20159;-60
2023/12/01 04:22:20;;;;;;;13.40;12.00;;;;;;;11.26;100.00;23530.31;6184472;23;20162;-59
2023/12/01 04:24:49;;;;;;;11.83;11.23;;;;;;;11.29;100.00;23853.81;6183827;23;20159;-60
2023/12/01 04:27:16;;;;;;;12.40;11.23;;;;;;;11.32;100.00;27724.34;6184007;23;20158;-59
2023/12/01 04:29:43;;;;;;;12.77;11.77;;;;;;;11.28;100.00;28367.56;6183721;23;20159;-60
2023/12/01 04:32:10;;;;;;;13.13;11.77;;;;;;;11.34;100.00;28693.34;6183877;23;20166;-62
2023/12/01 04:34:37;;;;;;;13.63;12.40;;;;;;;11.42;100.00;30634.56;6184097;23;20597;-60
2023/12/01 04:37:09;;;;;;;13.47;12.47;;;;;;;11.45;100.00;31281.91;6184676;23;20159;-60
2023/12/01 04:39:38;;;;;;;13.00;11.73;;;;;;;11.43;100.00;33542.56;6185724;23;20158;-60
2023/12/01 04:42:09;;;;;;;13.73;12.53;;;;;;;11.50;100.00;36457.34;6186046;23;20493;-59
2023/12/01 04:44:36;;;;;;;14.07;12.87;;;;;;;11.49;100.00;38398.44;6185620;23;20245;-60
2023/12/01 04:47:03;;;;;;;13.53;12.20;;;;;;;11.32;100.00;38063.25;6185723;23;20166;-61
2023/12/01 04:49:30;;;;;;;14.07;12.73;;;;;;;11.42;100.00;38394.00;6185549;23;20158;-59
2023/12/01 04:51:57;;;;;;;13.50;12.60;;;;;;;11.35;100.00;42275.28;6185957;23;20205;-59
2023/12/01 04:54:24;;;;;;;14.67;13.50;;;;;;;11.25;100.00;49402.25;6185658;23;20158;-61
2023/12/01 04:56:51;;;;;;;14.13;13.03;;;;;;;11.18;100.00;49721.28;6185594;23;20212;-60
2023/12/01 04:59:20;;;;;;;13.97;12.73;;;;;;;11.10;100.00;44524.63;6185680;23;20198;-59
2023/12/01 05:01:47;;;;;;;12.17;11.10;;;;;;;11.09;100.00;40960.25;6185684;23;20158;-60
2023/12/01 05:04:14;;;;;;;16.60;11.73;;;;;;;11.07;100.00;37399.84;6185384;23;20220;-61
2023/12/01 05:06:41;;;;;;;12.37;11.60;;;;;;;11.15;100.00;34818.56;6185893;23;20474;-61
2023/12/01 05:09:16;;;;;;;13.93;12.63;;;;;;;11.11;100.00;33523.31;6185916;23;20182;-60
2023/12/01 05:11:44;;;;;;;12.73;11.70;;;;;;;11.35;100.00;33538.03;6185431;23;20161;-60
2023/12/01 05:14:11;;;;;;;13.07;12.17;;;;;;;11.37;100.00;34508.66;6185778;23;20159;-59
2023/12/01 05:16:41;;;;;;;12.50;11.50;;;;;;;11.40;100.00;37421.78;6185356;23;20158;-60
2023/12/01 05:19:08;;;;;;;12.33;11.23;;;;;;;11.43;100.00;38718.41;6185816;23;20217;-59
2023/12/01 05:21:35;;;;;;;11.63;10.83;;;;;;;11.46;100.00;40663.44;6185652;23;20590;-59
2023/12/01 05:24:02;;;;;;;12.13;11.07;;;;;;;11.53;100.00;43909.28;6185282;23;20166;-60
2023/12/01 05:26:29;;;;;;;11.63;10.73;;;;;;;11.54;100.00;46180.38;6185270;23;20162;-59
2023/12/01 05:28:56;;;;;;;12.40;11.37;;;;;;;11.48;100.00;47149.03;6185172;23;20241;-61
2023/12/01 05:31:23;;;;;;;12.33;11.47;;;;;;;11.63;100.00;52034.44;6185138;23;20162;-59
2023/12/01 05:33:52;;;;;;;14.83;13.27;;;;;;;11.61;100.00;52357.75;6185945;23;20220;-60
2023/12/01 05:36:19;;;;;;;14.03;12.63;;;;;;;11.25;100.00;54925.84;6185596;23;20491;-60
2023/12/01 05:38:46;;;;;;;13.40;12.40;;;;;;;11.67;100.00;59850.59;6185523;23;20633;-61
2023/12/01 05:41:13;;;;;;;11.87;11.00;;;;;;;11.75;100.00;62141.13;6185397;23;20493;-60
2023/12/01 05:43:40;;;;;;;13.10;12.00;;;;;;;11.82;100.00;61496.34;6185569;23;20201;-61
2023/12/01 05:46:07;;;;;;;14.53;13.33;;;;;;;11.92;100.00;65095.63;6185093;23;20158;-61
2023/12/01 05:48:36;;;;;;;14.17;11.87;;;;;;;11.99;100.00;67390.63;6185015;23;20154;-59
2023/12/01 05:51:05;;;;;;;14.47;11.73;;;;;;;11.93;100.00;70324.94;6185124;23;20256;-61
2023/12/01 05:53:34;;;;;;;12.97;11.47;;;;;;;12.01;100.00;69354.19;6185018;23;20205;-60
2023/12/01 05:56:01;;;;;;;12.20;10.90;;;;;;;12.05;100.00;74921.66;6184862;23;20189;-60
2023/12/01 05:58:29;;;;;;;11.00;10.40;;;;;;;12.16;100.00;83134.97;6184839;23;20185;-60
2023/12/01 06:00:56;;;;;;;10.90;9.90;;;;;;;12.21;100.00;92019.94;6184884;23;20217;-59
2023/12/01 06:03:23;;;;;;;10.20;9.37;;;;;;;12.22;100.00;91363.88;6184847;23;20163;-59
2023/12/01 06:05:50;;;;;;;9.23;8.53;;;;;;;12.27;100.00;97302.44;6185252;23;20594;-60
2023/12/01 06:08:19;;;;;;;8.83;8.30;;;;;;;12.38;100.00;103260.94;6185274;23;20675;-59
2023/12/01 06:10:46;;;;;;;8.87;8.33;;;;;;;12.49;100.00;110226.56;6184934;23;20169;-59
2023/12/01 06:13:13;;;;;;;9.67;9.07;;;;;;;12.54;100.00;113548.84;6184801;23;20216;-59
2023/12/01 06:15:41;;;;;;;15.37;10.83;;;;;;;12.49;100.00;116192.56;6184795;23;20162;-60
2023/12/01 06:18:09;;;;;;;13.50;9.63;;;;;;;12.45;100.00;119834.69;6184626;23;20256;-60
2023/12/01 06:20:37;;;;;;;10.03;9.17;;;;;;;12.61;100.00;120862.63;6185022;23;20590;-60
2023/12/01 06:23:06;;;;;;;10.17;9.37;;;;;;;12.67;100.00;126859.81;6185273;23;20497;-59
2023/12/01 06:25:38;;;;;;;10.77;9.10;;;;;;;12.80;100.00;136887.34;6184297;23;20158;-60
2023/12/01 06:28:06;;;;;;;11.33;10.13;;;;;;;12.87;100.00;146247.34;6184835;23;20582;-60
2023/12/01 06:30:34;;;;;;;11.30;10.40;;;;;;;12.87;100.00;149272.75;6184382;23;20162;-59
2023/12/01 06:33:01;;;;;;;11.47;9.17;;;;;;;13.05;100.00;149319.63;6184811;23;20158;-57
2023/12/01 06:35:29;;;;;;;9.27;8.40;;;;;;;13.21;100.00;149360.22;6184705;23;20158;-58
2023/12/01 06:37:56;;;;;;;9.40;7.97;;;;;;;13.34;100.00;149390.59;6184614;23;20162;-56
2023/12/01 06:40:24;;;;;;;16.17;8.77;;;;;;;13.43;100.00;149414.69;6184603;23;20162;-57
2023/12/01 06:42:53;;;;;;;19.93;9.50;;;;;;;13.59;100.00;149455.22;6184545;23;20173;-57
2023/12/01 06:45:23;;;;;;;8.97;8.23;;;;;;;13.53;100.00;149440.03;6184258;23;20225;-57
2023/12/01 06:47:51;;;;;;;10.90;8.30;;;;;;;13.79;100.00;149503.41;6184066;23;20162;-57
2023/12/01 06:50:21;;;;;;;22.13;9.13;;;;;;;13.84;100.00;149517.31;6184586;23;20553;-57
2023/12/01 06:52:52;;;;;;;19.37;8.37;;;;;;;13.82;100.00;149510.97;6184235;23;20355;-57
2023/12/01 06:55:20;;;;;;;9.70;8.10;;;;;;;13.81;100.00;149508.44;6184162;23;20213;-56
2023/12/01 06:57:48;;;;;;;9.20;8.30;;;;;;;13.97;100.00;149550.25;6184585;23;20163;-60
2023/12/01 07:00:29;;;;;;;13.43;8.07;;;;;;;13.91;100.00;149533.81;6183724;23;20212;-58
2023/12/01 07:02:57;;;;;;;20.57;8.27;;;;;;;14.00;100.00;149556.63;6184119;23;20249;-57
2023/12/01 07:05:25;;;;;;;9.43;6.53;;;;;;;14.01;100.00;149560.41;6183958;23;20158;-57
2023/12/01 07:07:53;;;;;;;16.90;7.30;;;;;;;14.03;100.00;149565.50;6184069;23;20165;-57
2023/12/01 07:10:21;;;;;;;7.87;6.87;;;;;;;14.10;100.00;149583.22;6184276;23;20162;-57
2023/12/01 07:12:48;;;;;;;19.87;7.90;;;;;;;14.15;100.00;149595.91;6184218;23;20666;-57
2023/12/01 07:15:20;;;;;;;12.60;7.37;;;;;;;14.23;100.00;149613.63;6184438;23;20632;-57
2023/12/01 07:17:49;;;;;;;22.70;8.20;;;;;;;14.24;100.00;149616.19;6184817;23;20163;-58
2023/12/01 07:20:18;;;;;;;18.57;8.07;;;;;;;14.25;100.00;149620.00;6184016;23;20269;-58
2023/12/01 07:22:46;;;;;;;7.10;6.40;;;;;;;14.39;100.00;149654.25;6183940;23;20169;-57
2023/12/01 07:25:21;;;;;;;12.57;6.97;;;;;;;14.27;100.00;149623.78;6183917;23;20238;-57
2023/12/01 07:27:49;;;;;;;11.00;6.83;;;;;;;14.66;100.00;149722.72;6183954;23;20162;-58
2023/12/01 07:30:18;;;;;;;14.53;7.10;;;;;;;14.78;100.00;149753.16;6184104;23;20216;-59
2023/12/01 07:32:45;;;;;;;12.40;6.70;;;;;;;14.87;100.00;149774.72;6183948;23;20241;-60
2023/12/01 07:35:12;;;;;;;7.53;6.47;;;;;;;15.07;100.00;149826.72;6184042;23;20163;-60
2023/12/01 07:37:42;;;;;;;18.20;7.40;;;;;;;15.18;100.00;149852.13;6184286;23;20188;-60
2023/12/01 07:40:10;;;;;;;12.77;7.03;;;;;;;15.33;100.00;149891.44;6183969;23;20213;-59
2023/12/01 07:42:37;;;;;;;19.97;7.60;;;;;;;15.46;100.00;149923.13;6183956;23;20489;-60
2023/12/01 07:45:05;;;;;;;13.17;6.27;;;;;;;15.46;100.00;149923.13;6184163;23;20162;-59
2023/12/01 07:47:34;;;;;;;15.27;6.47;;;;;;;15.65;100.00;149971.44;6184192;23;20162;-59
2023/12/01 07:50:04;;;;;;;8.70;6.37;;;;;;;15.50;100.00;149933.34;6183718;23;20245;-59
2023/12/01 07:52:32;;;;;;;8.90;6.93;;;;;;;15.47;100.00;149926.97;6183901;23;20198;-60
2023/12/01 07:54:59;;;;;;;7.57;7.10;;;;;;;15.60;100.00;149958.72;6184381;23;20155;-61
2023/12/01 07:57:26;;;;;;;11.03;7.60;;;;;;;15.65;100.00;149970.16;6183888;23;20169;-60
2023/12/01 07:59:54;;;;;;;11.93;7.13;;;;;;;15.64;100.00;149968.88;6184206;23;20656;-60
2023/12/01 08:02:22;;;;;;;21.43;9.33;;;;;;;15.49;100.00;149930.75;6184078;23;20569;-59
2023/12/01 08:04:50;;;;;;;8.73;7.27;;;;;;;15.60;100.00;149957.47;6183341;23;20162;-59
2023/12/01 08:07:17;;;;;;;13.80;8.17;;;;;;;15.67;100.00;149976.50;6184120;23;20162;-61
2023/12/01 08:09:44;;;;;;;10.27;8.93;;;;;;;15.70;100.00;149984.09;6183387;23;20556;-60
2023/12/01 08:12:11;;;;;;;29.07;10.83;;;;;;;15.67;100.00;149976.50;6183922;23;20189;-59
2023/12/01 08:14:38;;;;;;;12.60;8.23;;;;;;;15.68;100.00;149979.03;6183482;23;20224;-60
2023/12/01 08:17:05;;;;;;;9.10;8.23;;;;;;;15.75;100.00;149996.78;6183565;23;20612;-59
2023/12/01 08:19:34;;;;;;;13.63;8.87;;;;;;;15.82;100.00;150014.59;6183811;23;20181;-60
2023/12/01 08:22:04;;;;;;;9.77;8.13;;;;;;;15.93;100.00;150042.50;6183808;23;20609;-60
2023/12/01 08:24:32;;;;;;;25.37;9.73;;;;;;;16.02;100.00;150064.06;6183301;23;20189;-60
2023/12/01 08:26:59;;;;;;;7.93;7.03;;;;;;;16.10;100.00;150084.38;6183375;23;20194;-60
2023/12/01 08:29:27;;;;;;;6.97;6.33;;;;;;;16.19;100.00;150105.97;6184098;23;20158;-61
2023/12/01 08:32:01;;;;;;;5.83;5.37;;;;;;;16.19;100.00;150107.25;6182073;23;20518;-56
2023/12/01 08:34:33;;;;;;;6.00;5.40;;;;;;;16.11;100.00;150086.94;6183584;23;20540;-59
2023/12/01 08:37:02;;;;;;;6.00;5.30;;;;;;;16.22;100.00;150113.56;6183256;23;20253;-58
2023/12/01 08:39:30;;;;;;;6.53;5.37;;;;;;;16.31;100.00;150136.44;6183354;23;20181;-59
2023/12/01 08:41:57;;;;;;;5.30;4.90;;;;;;;16.33;100.00;150141.53;6183145;23;20269;-58
2023/12/01 08:44:24;;;;;;;5.10;4.80;;;;;;;16.35;100.00;150146.59;6183418;23;20613;-57
2023/12/01 08:46:52;;;;;;;4.40;4.20;;;;;;;16.40;100.00;150159.28;6183568;23;20181;-60
2023/12/01 08:49:19;;;;;;;5.17;4.50;;;;;;;16.50;100.00;150184.72;6183751;23;20193;-57
2023/12/01 08:51:46;;;;;;;4.17;3.97;;;;;;;16.61;100.00;150211.41;6183599;23;20286;-59
2023/12/01 08:54:15;;;;;;;5.50;3.97;;;;;;;16.41;100.00;150163.13;6182951;23;20217;-58
2023/12/01 08:56:42;;;;;;;4.30;3.90;;;;;;;16.83;100.00;150268.56;6183796;23;20549;-58
2023/12/01 08:59:09;;;;;;;4.87;4.30;;;;;;;17.31;100.00;150389.22;6183186;23;20218;-59
2023/12/01 09:01:40;;;;;;;7.13;4.03;;;;;;;18.06;100.00;150576.13;6183399;23;20242;-59
2023/12/01 09:04:08;;;;;;;7.07;4.13;;;;;;;18.27;100.00;150629.53;6183130;23;20188;-58
2023/12/01 09:06:36;;;;;;;7.47;3.97;;;;;;;18.81;100.00;150764.34;6183521;23;20169;-57
2023/12/01 09:09:03;;;;;;;5.70;4.20;;;;;;;19.42;100.00;150919.59;6183029;23;20158;-59
2023/12/01 09:11:32;;;;;;;7.67;4.50;;;;;;;20.25;100.00;151128.38;6183529;23;20529;-58
2023/12/01 09:13:59;;;;;;;6.50;5.20;;;;;;;21.12;100.00;151346.25;6183233;23;20159;-60
2023/12/01 09:16:27;;;;;;;11.70;6.32;;;;;;;22.00;100.00;151568.09;6183478;23;20162;-58
2023/12/01 09:18:54;;;;;;;7.72;5.40;;;;;;;23.48;96.51;151941.91;6183114;23;20182;-60
2023/12/01 09:21:22;;;;;;;6.75;5.90;;;;;;;25.07;79.26;152344.22;6183505;23;20154;-60
2023/12/01 09:23:50;;;;;;;8.30;5.32;;;;;;;25.67;72.04;152495.06;6184774;23;20606;-58
2023/12/01 09:26:18;;;;;;;11.48;6.70;;;;;;;26.13;69.16;152611.38;6185147;23;20241;-60
2023/12/01 09:28:50;;;;;;;5.95;5.43;;;;;;;26.91;64.45;152809.63;6185159;23;20166;-60
2023/12/01 09:31:17;;;;;;;6.22;4.90;;;;;;;25.92;64.85;152558.97;6184455;23;20173;-60
2023/12/01 09:33:47;;;;;;;5.43;4.88;;;;;;;25.24;67.67;152386.38;6185124;23;20241;-60
2023/12/01 09:36:17;;;;;;;5.82;5.30;;;;;;;23.50;81.17;151947.03;6185179;23;20159;-59
2023/12/01 09:38:44;;;;;;;5.25;4.57;;;;;;;22.98;85.67;151816.84;6184715;23;20166;-61
2023/12/01 09:41:11;;;;;;;9.02;5.25;;;;;;;22.22;92.67;151624.22;6185199;23;20497;-59
2023/12/01 09:43:41;;;;;;;12.40;5.18;;;;;;;21.92;98.23;151547.66;6184902;23;20166;-59
2023/12/01 09:46:10;;;;;;;6.88;4.22;;;;;;;21.64;100.00;151477.56;6185098;23;20548;-59
2023/12/01 09:48:42;;;;;;;17.02;5.15;;;;;;;21.03;100.00;151323.31;6184864;23;20166;-57
2023/12/01 09:51:09;;;;;;;14.23;4.93;;;;;;;20.18;100.00;151110.59;6184904;23;20181;-58
2023/12/01 09:53:37;;;;;;;13.40;4.68;;;;;;;19.80;100.00;151013.81;6154898;23;20166;-58
2023/12/01 09:56:05;;;;;;;10.13;4.00;;;;;;;19.73;100.00;150997.25;6154725;23;20563;-57
2023/12/01 09:58:35;;;;;;;7.70;3.90;;;;;;;19.63;100.00;150970.53;6154995;23;20169;-59
2023/12/01 10:01:02;;;;;;;9.80;4.30;;;;;;;19.86;100.00;151029.13;6155147;23;20722;-57
2023/12/01 10:03:31;;;;;;;18.23;4.97;;;;;;;19.84;100.00;151024.00;6155662;23;20159;-57
2023/12/01 10:05:59;;;;;;;8.05;4.18;;;;;;;20.93;100.00;151300.38;6152764;23;20163;-57
2023/12/01 10:08:27;;;;;;;12.43;4.72;;;;;;;21.68;100.00;151487.75;6155470;23;20585;-54
2023/12/01 10:10:54;;;;;;;13.15;4.38;;;;;;;21.29;100.00;151389.63;6154837;23;20156;-57
2023/12/01 10:13:21;;;;;;;7.28;4.00;;;;;;;21.07;100.00;151333.50;6155223;23;20288;-57
2023/12/01 10:15:49;;;;;;;13.70;4.45;;;;;;;20.79;100.00;151263.47;6154784;23;20166;-57
2023/12/01 10:18:19;;;;;;;7.43;3.35;;;;;;;20.61;100.00;151217.59;6154991;23;20165;-56
2023/12/01 10:21:02;;;;;;;19.15;4.80;;;;;;;20.68;100.00;151235.41;6155007;23;20273;-58
2023/12/01 10:23:30;;;;;;;8.20;3.72;;;;;;;20.60;100.00;151216.31;6155045;23;20236;-56
2023/12/01 10:25:58;;;;;;;7.83;3.90;;;;;;;20.38;100.00;151161.56;6155329;23;20218;-56
2023/12/01 10:28:38;;;;;;;12.63;4.45;;;;;;;20.35;100.00;151153.91;6154835;23;20217;-56
2023/12/01 10:31:06;;;;;;;15.20;4.20;;;;;;;20.30;100.00;151139.91;6154542;23;20304;-57
2023/12/01 10:33:35;;;;;;;12.18;4.38;;;;;;;20.34;100.00;151151.38;6154397;23;20190;-57
2023/12/01 10:36:06;;;;;;;20.38;4.55;;;;;;;20.32;100.00;151146.31;6154437;23;20162;-56
2023/12/01 10:38:34;;;;;;;9.55;3.38;;;;;;;20.53;100.00;151198.50;6154655;23;20163;-56
2023/12/01 10:41:04;;;;;;;6.03;3.38;;;;;;;21.04;100.00;151327.16;6155149;23;20582;-56
2023/12/01 10:43:32;;;;;;;4.78;2.95;;;;;;;21.37;100.00;151411.28;6154629;23;20163;-55
2023/12/01 10:46:03;;;;;;;7.68;2.45;;;;;;;21.79;100.00;151517.06;6154755;23;20163;-55
2023/12/01 10:48:31;;;;;;;8.15;2.67;;;;;;;21.79;100.00;151517.06;6155048;23;20190;-57
2023/12/01 10:50:58;;;;;;;5.65;2.88;;;;;;;21.78;100.00;151513.22;6155069;23;20483;-56
2023/12/01 10:53:29;;;;;;;4.50;2.47;;;;;;;21.73;100.00;151501.75;6182149;23;20202;-55
2023/12/01 10:56:01;;;;;;;11.38;3.90;;;;;;;21.88;100.00;151538.75;6185149;23;20216;-57
2023/12/01 10:58:32;;;;;;;3.83;3.00;;;;;;;21.97;100.00;151561.75;6184683;23;20597;-56
2023/12/01 11:01:02;;;;;;;10.00;2.72;;;;;;;22.83;95.25;151778.53;6183981;23;20182;-57
2023/12/01 11:03:31;;;;;;;14.65;3.13;;;;;;;23.31;91.03;151899.75;6183655;23;20162;-55
2023/12/01 11:06:01;;;;;;;8.23;3.38;;;;;;;23.98;88.48;152068.25;6184086;23;20169;-56
2023/12/01 11:08:44;;;;;;;6.40;4.13;;;;;;;24.40;82.30;152174.31;6184225;23;20169;-57
2023/12/01 11:11:18;;;;;;;3.00;2.60;;;;;;;25.03;76.98;152334.00;6183821;23;20242;-55
2023/12/01 11:14:02;;;;;;;11.50;3.63;;;;;;;25.02;71.29;152332.72;6183868;23;20193;-56
2023/12/01 11:16:31;;;;;;;8.85;3.58;;;;;;;25.51;69.77;152454.06;6184600;23;20545;-56
2023/12/01 11:18:59;;;;;;;4.47;2.70;;;;;;;26.09;65.88;152601.13;6183739;23;20163;-56